createdAt,value
2017-05-17T00:00:18.103Z,15.10
2017-05-17T00:02:46.608Z,13.90
2017-05-17T00:05:15.112Z,16.82
2017-05-17T00:07:43.901Z,15.72
2017-05-17T00:10:12.439Z,14.48
2017-05-17T00:12:40.945Z,13.42
2017-05-17T00:15:09.487Z,14.75
2017-05-17T00:17:37.984Z,14.10
2017-05-17T00:20:06.492Z,12.25
2017-05-17T00:22:35.040Z,14.50
2017-05-17T00:25:03.539Z,16.57
2017-05-17T00:27:32.037Z,17.58
2017-05-17T00:30:00.599Z,16.33
2017-05-17T00:32:29.095Z,15.38
2017-05-17T00:34:57.595Z,18.50
2017-05-17T00:37:37.881Z,15.78
2017-05-17T00:40:18.412Z,16.60
2017-05-17T00:42:58.857Z,14.83
2017-05-17T00:45:39.144Z,17.55
2017-05-17T00:48:19.553Z,16.23
2017-05-17T00:50:59.820Z,14.40
2017-05-17T00:53:28.360Z,13.02
2017-05-17T00:55:56.860Z,16.32
2017-05-17T00:58:25.364Z,17.80
2017-05-17T01:00:53.908Z,15.95
2017-05-17T01:03:22.409Z,18.97
2017-05-17T01:05:50.909Z,16.70
2017-05-17T01:08:19.451Z,17.37
2017-05-17T01:10:47.948Z,16.45
2017-05-17T01:13:16.444Z,15.67
2017-05-17T01:15:45.021Z,13.82
2017-05-17T01:18:13.517Z,15.27
2017-05-17T01:20:42.022Z,16.43
2017-05-17T01:23:10.589Z,20.48
2017-05-17T01:25:39.092Z,19.35
2017-05-17T01:28:07.596Z,17.45
2017-05-17T01:30:36.141Z,19.55
2017-05-17T01:33:04.656Z,13.77
2017-05-17T01:35:33.168Z,16.90
2017-05-17T01:38:01.744Z,17.20
2017-05-17T01:40:30.243Z,16.05
2017-05-17T01:42:58.753Z,16.07
2017-05-17T01:45:27.296Z,18.03
2017-05-17T01:47:55.797Z,17.32
2017-05-17T01:50:24.300Z,16.75
2017-05-17T01:52:52.841Z,21.10
2017-05-17T01:55:21.343Z,21.37
2017-05-17T01:57:49.844Z,19.03
2017-05-17T02:00:18.411Z,20.58
2017-05-17T02:02:46.911Z,17.60
2017-05-17T02:05:33.163Z,20.65
2017-05-17T02:08:01.763Z,17.52
2017-05-17T02:10:30.264Z,19.58
2017-05-17T02:12:58.804Z,14.67
2017-05-17T02:15:27.303Z,21.27
2017-05-17T02:17:55.805Z,19.27
2017-05-17T02:20:24.379Z,19.13
2017-05-17T02:22:53.616Z,15.95
2017-05-17T02:25:22.127Z,19.10
2017-05-17T02:27:50.667Z,17.38
2017-05-17T02:30:19.171Z,18.83
2017-05-17T02:32:47.671Z,23.02
2017-05-17T02:35:16.244Z,18.75
2017-05-17T02:37:44.746Z,16.47
2017-05-17T02:40:13.239Z,17.43
2017-05-17T02:42:41.780Z,15.78
2017-05-17T02:45:10.300Z,17.22
2017-05-17T02:47:38.804Z,18.90
2017-05-17T02:50:07.344Z,18.48
2017-05-17T02:52:35.838Z,20.52
2017-05-17T02:55:04.333Z,21.50
2017-05-17T02:57:32.883Z,19.52
2017-05-17T03:00:01.384Z,19.42
2017-05-17T03:02:29.883Z,18.12
2017-05-17T03:04:58.428Z,18.92
2017-05-17T03:07:26.954Z,20.28
2017-05-17T03:09:55.479Z,16.82
2017-05-17T03:12:24.853Z,24.32
2017-05-17T03:14:53.355Z,22.87
2017-05-17T03:17:21.860Z,28.15
2017-05-17T03:19:50.408Z,20.92
2017-05-17T03:22:18.903Z,19.15
2017-05-17T03:24:47.405Z,16.45
2017-05-17T03:27:15.950Z,23.58
2017-05-17T03:29:44.443Z,24.22
2017-05-17T03:32:12.940Z,23.43
2017-05-17T03:34:41.485Z,18.42
2017-05-17T03:37:09.988Z,20.67
2017-05-17T03:39:38.495Z,13.38
2017-05-17T03:42:07.040Z,12.05
2017-05-17T03:44:35.540Z,13.33
2017-05-17T03:47:04.044Z,13.65
2017-05-17T03:49:32.696Z,11.95
2017-05-17T03:52:01.199Z,15.50
2017-05-17T03:54:29.704Z,13.37
2017-05-17T03:56:58.246Z,13.85
2017-05-17T03:59:26.772Z,13.38
2017-05-17T04:01:55.276Z,17.52
2017-05-17T04:04:23.850Z,12.33
2017-05-17T04:06:52.372Z,15.18
2017-05-17T04:09:20.869Z,13.97
2017-05-17T04:11:49.413Z,15.17
2017-05-17T04:14:17.924Z,15.53
2017-05-17T04:16:46.427Z,15.72
2017-05-17T04:19:14.971Z,22.30
2017-05-17T04:21:44.393Z,22.58
2017-05-17T04:24:12.897Z,15.65
2017-05-17T04:26:41.439Z,21.15
2017-05-17T04:29:10.521Z,18.03
2017-05-17T04:31:39.598Z,15.52
2017-05-17T04:34:08.212Z,18.07
2017-05-17T04:36:36.715Z,15.52
2017-05-17T04:57:19.917Z,19.07
2017-05-17T04:59:48.415Z,18.72
2017-05-17T05:02:16.926Z,13.08
2017-05-17T05:04:45.485Z,17.85
2017-05-17T05:07:13.997Z,15.70
2017-05-17T05:09:42.510Z,16.17
2017-05-17T05:12:11.061Z,13.57
2017-05-17T05:14:39.572Z,15.73
2017-05-17T05:17:08.084Z,15.83
2017-05-17T05:19:36.640Z,13.67
2017-05-17T05:22:05.143Z,15.35
2017-05-17T05:24:33.652Z,13.37
2017-05-17T05:27:02.204Z,13.60
2017-05-17T05:29:30.716Z,18.90
2017-05-17T05:31:59.230Z,14.58
2017-05-17T05:34:27.785Z,15.05
2017-05-17T05:36:56.309Z,12.60
2017-05-17T05:39:24.820Z,11.83
2017-05-17T05:41:53.385Z,13.58
2017-05-17T05:44:21.906Z,13.25
2017-05-17T05:46:50.425Z,14.10
2017-05-17T05:49:19.008Z,12.90
2017-05-17T05:51:47.512Z,12.96
2017-05-17T05:54:16.015Z,13.82
2017-05-17T05:56:44.560Z,12.42
2017-05-17T05:59:13.068Z,12.74
2017-05-17T06:01:41.572Z,12.74
2017-05-17T06:04:10.128Z,12.10
2017-05-17T06:06:38.641Z,12.92
2017-05-17T06:09:07.189Z,11.52
2017-05-17T06:11:35.746Z,13.94
2017-05-17T06:14:04.258Z,12.00
2017-05-17T06:16:32.768Z,16.88
2017-05-17T06:19:01.331Z,12.42
2017-05-17T06:21:29.846Z,13.48
2017-05-17T06:23:58.357Z,11.78
2017-05-17T06:26:26.907Z,12.92
2017-05-17T06:28:55.421Z,12.34
2017-05-17T06:31:23.929Z,11.70
2017-05-17T06:33:52.495Z,12.56
2017-05-17T06:36:21.000Z,14.64
2017-05-17T06:38:49.516Z,13.32
2017-05-17T06:41:18.079Z,13.48
2017-05-17T06:43:46.583Z,14.46
2017-05-17T06:46:15.092Z,12.14
2017-05-17T06:48:43.652Z,13.87
2017-05-17T06:51:12.165Z,13.64
2017-05-17T06:53:40.673Z,12.94
2017-05-17T06:56:09.225Z,12.58
2017-05-17T06:58:37.735Z,11.08
2017-05-17T07:01:06.234Z,10.12
2017-05-17T07:03:34.782Z,10.08
2017-05-17T07:06:03.287Z,10.60
2017-05-17T07:08:31.808Z,11.42
2017-05-17T07:11:00.364Z,10.36
2017-05-17T07:13:28.916Z,11.62
2017-05-17T07:15:57.429Z,10.95
2017-05-17T07:18:25.989Z,10.48
2017-05-17T07:20:54.501Z,13.92
2017-05-17T07:23:23.013Z,10.70
2017-05-17T07:25:51.565Z,11.20
2017-05-17T07:28:20.068Z,14.16
2017-05-17T07:30:48.586Z,11.18
2017-05-17T07:33:17.145Z,9.82
2017-05-17T07:35:45.648Z,9.90
2017-05-17T07:38:14.163Z,9.50
2017-05-17T07:40:42.705Z,8.62
2017-05-17T07:43:11.213Z,9.00
2017-05-17T07:45:39.715Z,9.98
2017-05-17T07:48:08.264Z,10.94
2017-05-17T07:50:36.764Z,9.90
2017-05-17T07:53:05.275Z,11.22
2017-05-17T07:55:33.823Z,12.26
2017-05-17T07:58:02.329Z,10.06
2017-05-17T08:00:30.840Z,10.16
2017-05-17T08:02:59.387Z,11.36
2017-05-17T08:05:27.892Z,11.96
2017-05-17T08:07:56.396Z,11.42
2017-05-17T08:10:24.938Z,10.50
2017-05-17T08:12:53.445Z,10.88
2017-05-17T08:15:21.947Z,8.80
2017-05-17T08:17:50.492Z,9.30
2017-05-17T08:20:18.998Z,8.92
2017-05-17T08:22:47.500Z,8.32
2017-05-17T08:25:16.041Z,9.10
2017-05-17T08:27:44.554Z,11.02
2017-05-17T08:30:13.064Z,11.00
2017-05-17T08:32:41.603Z,9.92
2017-05-17T08:35:10.113Z,9.68
2017-05-17T08:37:38.621Z,10.32
2017-05-17T08:40:07.168Z,10.04
2017-05-17T08:42:35.709Z,12.82
2017-05-17T08:45:04.208Z,11.24
2017-05-17T08:47:32.743Z,8.02
2017-05-17T08:50:01.252Z,8.52
2017-05-17T08:52:29.765Z,10.60
2017-05-17T08:54:58.313Z,8.66
2017-05-17T08:57:26.816Z,7.64
2017-05-17T08:59:55.327Z,9.34
2017-05-17T09:02:23.877Z,7.52
2017-05-17T09:04:52.383Z,7.90
2017-05-17T09:07:20.889Z,13.56
2017-05-17T09:09:49.432Z,11.03
2017-05-17T09:12:17.941Z,9.33
2017-05-17T09:14:46.455Z,8.30
2017-05-17T09:17:15.017Z,7.83
2017-05-17T09:19:43.527Z,6.53
2017-05-17T09:22:12.032Z,10.28
2017-05-17T09:24:40.581Z,8.18
2017-05-17T09:27:09.089Z,8.93
2017-05-17T09:29:37.614Z,12.00
2017-05-17T09:32:06.163Z,8.85
2017-05-17T09:34:34.661Z,8.90
2017-05-17T09:37:03.165Z,11.82
2017-05-17T09:39:31.714Z,8.75
2017-05-17T09:42:00.219Z,9.63
2017-05-17T09:44:28.728Z,7.97
2017-05-17T09:46:57.265Z,8.85
2017-05-17T09:49:25.768Z,9.58
2017-05-17T09:51:54.281Z,8.30
2017-05-17T09:54:22.828Z,8.45
2017-05-17T09:56:51.335Z,9.82
2017-05-17T09:59:19.838Z,9.18
2017-05-17T10:01:48.375Z,8.40
2017-05-17T10:04:16.876Z,9.57
2017-05-17T10:06:45.385Z,7.38
2017-05-17T10:09:13.924Z,5.95
2017-05-17T10:11:42.435Z,7.27
2017-05-17T10:14:10.938Z,7.95
2017-05-17T10:16:39.514Z,7.87
2017-05-17T10:19:08.062Z,7.77
2017-05-17T10:21:36.565Z,7.88
2017-05-17T10:24:05.104Z,7.27
2017-05-17T10:26:33.600Z,6.18
2017-05-17T10:29:02.101Z,5.87
2017-05-17T10:31:30.641Z,6.57
2017-05-17T10:33:59.141Z,6.22
2017-05-17T10:36:27.642Z,5.28
2017-05-17T10:38:56.189Z,6.50
2017-05-17T10:41:24.689Z,6.33
2017-05-17T10:43:53.195Z,15.05
2017-05-17T10:46:21.741Z,7.45
2017-05-17T10:48:50.239Z,6.65
2017-05-17T10:51:18.746Z,9.02
2017-05-17T10:53:47.295Z,7.40
2017-05-17T10:56:15.805Z,6.18
2017-05-17T10:58:44.306Z,6.70
2017-05-17T11:01:12.852Z,6.02
2017-05-17T11:03:41.348Z,5.90
2017-05-17T11:06:09.857Z,7.25
2017-05-17T11:08:38.413Z,6.92
2017-05-17T11:11:06.917Z,5.95
2017-05-17T11:13:35.422Z,5.95
2017-05-17T11:16:03.983Z,5.93
2017-05-17T11:18:32.483Z,7.45
2017-05-17T11:21:00.990Z,5.52
2017-05-17T11:23:29.533Z,8.55
2017-05-17T11:25:58.053Z,6.08
2017-05-17T11:28:26.544Z,6.03
2017-05-17T11:30:55.105Z,5.62
2017-05-17T11:33:23.611Z,5.50
2017-05-17T11:35:52.111Z,6.32
2017-05-17T11:38:20.658Z,6.45
2017-05-17T11:40:49.163Z,5.90
2017-05-17T11:43:17.670Z,6.43
2017-05-17T11:45:46.249Z,6.10
2017-05-17T11:48:14.755Z,5.62
2017-05-17T11:50:43.254Z,6.83
2017-05-17T11:53:11.805Z,5.60
2017-05-17T11:55:40.310Z,5.70
2017-05-17T11:58:08.803Z,5.45
2017-05-17T12:00:37.349Z,5.35
2017-05-17T12:03:05.856Z,5.98
2017-05-17T12:05:34.365Z,6.13
2017-05-17T12:08:02.907Z,5.12
2017-05-17T12:10:31.404Z,4.27
2017-05-17T12:12:59.906Z,4.12
2017-05-17T12:15:28.452Z,4.40
2017-05-17T12:17:56.952Z,6.65
2017-05-17T12:20:25.459Z,6.05
2017-05-17T12:22:54.000Z,5.85
2017-05-17T12:25:22.499Z,8.05
2017-05-17T12:27:50.999Z,4.37
2017-05-17T12:30:19.553Z,5.45
2017-05-17T12:32:48.058Z,5.08
2017-05-17T12:35:16.571Z,5.08
2017-05-17T12:37:45.112Z,5.67
2017-05-17T12:40:13.623Z,5.32
2017-05-17T12:42:42.120Z,7.27
2017-05-17T12:45:10.693Z,4.42
2017-05-17T12:47:39.191Z,5.45
2017-05-17T12:50:07.692Z,4.48
2017-05-17T12:52:36.248Z,4.90
2017-05-17T12:55:04.760Z,6.43
2017-05-17T12:57:33.257Z,5.92
2017-05-17T13:00:01.801Z,4.75
2017-05-17T13:02:30.303Z,4.57
2017-05-17T13:04:58.815Z,5.72
2017-05-17T13:07:27.368Z,12.38
2017-05-17T13:09:55.866Z,6.82
2017-05-17T13:12:24.372Z,9.15
2017-05-17T13:14:52.927Z,5.12
2017-05-17T13:17:21.425Z,5.07
2017-05-17T13:19:49.925Z,5.08
2017-05-17T13:22:18.463Z,5.02
2017-05-17T13:24:46.965Z,8.35
2017-05-17T13:27:15.470Z,5.37
2017-05-17T13:29:44.277Z,6.88
2017-05-17T13:32:12.787Z,5.53
2017-05-17T13:34:41.284Z,5.18
2017-05-17T13:37:09.824Z,5.42
2017-05-17T13:39:38.324Z,5.13
2017-05-17T13:42:06.826Z,4.67
2017-05-17T13:44:35.367Z,5.23
2017-05-17T13:47:03.869Z,6.08
2017-05-17T13:49:32.380Z,5.77
2017-05-17T13:52:00.920Z,5.77
2017-05-17T13:54:29.424Z,5.02
2017-05-17T13:56:57.924Z,3.98
2017-05-17T13:59:26.462Z,4.20
2017-05-17T14:01:54.973Z,5.00
2017-05-17T14:04:23.472Z,5.18
2017-05-17T14:06:52.017Z,3.78
2017-05-17T14:09:20.517Z,4.90
2017-05-17T14:11:49.024Z,7.13
2017-05-17T14:14:17.565Z,4.72
2017-05-17T14:16:46.071Z,4.03
2017-05-17T14:19:14.564Z,5.20
2017-05-17T14:21:43.112Z,5.40
2017-05-17T14:24:11.617Z,4.55
2017-05-17T14:26:40.121Z,3.92
2017-05-17T14:29:08.670Z,5.77
2017-05-17T14:31:37.173Z,5.17
2017-05-17T14:34:05.677Z,5.32
2017-05-17T14:36:34.225Z,4.58
2017-05-17T14:39:02.724Z,4.00
2017-05-17T14:41:31.225Z,4.93
2017-05-17T14:43:59.777Z,4.53
2017-05-17T14:46:28.276Z,6.22
2017-05-17T14:48:56.777Z,4.43
2017-05-17T14:51:25.318Z,6.48
2017-05-17T14:53:53.817Z,5.53
2017-05-17T14:56:22.341Z,5.12
2017-05-17T14:58:50.891Z,3.82
2017-05-17T15:01:19.401Z,4.72
2017-05-17T15:03:47.908Z,3.65
2017-05-17T15:06:16.462Z,6.48
2017-05-17T15:08:44.962Z,4.47
2017-05-17T15:11:13.466Z,5.20
2017-05-17T15:13:42.004Z,3.92
2017-05-17T15:16:10.509Z,4.08
2017-05-17T15:18:39.009Z,2.98
2017-05-17T15:21:07.554Z,3.67
2017-05-17T15:23:36.066Z,5.33
2017-05-17T15:26:04.576Z,3.77
2017-05-17T15:28:33.131Z,8.05
2017-05-17T15:31:01.628Z,4.77
2017-05-17T15:33:30.128Z,4.25
2017-05-17T15:35:58.688Z,4.83
2017-05-17T15:38:27.189Z,4.37
2017-05-17T15:40:55.693Z,7.03
2017-05-17T15:43:24.243Z,4.52
2017-05-17T15:45:52.747Z,4.33
2017-05-17T15:48:21.253Z,4.28
2017-05-17T15:50:49.795Z,5.12
2017-05-17T15:53:18.302Z,4.70
2017-05-17T15:55:46.803Z,6.10
2017-05-17T15:58:15.353Z,5.32
2017-05-17T16:00:43.852Z,4.92
2017-05-17T16:03:12.353Z,6.60
2017-05-17T16:05:40.900Z,5.55
2017-05-17T16:08:09.399Z,7.77
2017-05-17T16:10:37.904Z,5.82
2017-05-17T16:13:06.444Z,4.93
2017-05-17T16:15:34.948Z,8.60
2017-05-17T16:18:03.479Z,4.92
2017-05-17T16:20:32.019Z,5.23
2017-05-17T16:23:00.540Z,7.30
2017-05-17T16:25:29.037Z,7.23
2017-05-17T16:27:57.582Z,6.15
2017-05-17T16:30:26.077Z,6.53
2017-05-17T16:32:54.580Z,6.72
2017-05-17T16:35:23.132Z,5.72
2017-05-17T16:37:51.633Z,5.60
2017-05-17T16:40:20.132Z,8.25
2017-05-17T16:42:48.667Z,7.22
2017-05-17T16:45:17.164Z,8.23
2017-05-17T16:47:45.669Z,7.42
2017-05-17T16:50:14.208Z,5.92
2017-05-17T16:52:43.711Z,7.32
2017-05-17T16:55:12.204Z,7.47
2017-05-17T16:57:40.745Z,7.77
2017-05-17T17:00:09.244Z,8.37
2017-05-17T17:02:37.756Z,7.18
2017-05-17T17:05:06.338Z,7.33
2017-05-17T17:07:34.841Z,7.28
2017-05-17T17:10:03.340Z,8.15
2017-05-17T17:12:31.885Z,8.70
2017-05-17T17:15:00.417Z,14.10
2017-05-17T17:17:28.916Z,9.25
2017-05-17T17:19:57.476Z,8.72
2017-05-17T17:22:25.992Z,9.27
2017-05-17T17:24:54.493Z,8.43
2017-05-17T17:27:23.041Z,9.07
2017-05-17T17:29:51.548Z,10.47
2017-05-17T17:32:20.102Z,10.68
2017-05-17T17:34:48.663Z,10.98
2017-05-17T17:37:17.181Z,8.85
2017-05-17T17:39:45.926Z,10.87
2017-05-17T17:42:14.580Z,10.02
2017-05-17T17:44:43.088Z,10.10
2017-05-17T17:47:11.581Z,9.75
2017-05-17T17:49:40.129Z,10.90
2017-05-17T17:52:08.636Z,10.38
2017-05-17T17:54:37.145Z,9.93
2017-05-17T17:57:05.692Z,10.60
2017-05-17T17:59:34.208Z,10.60
2017-05-17T18:02:02.722Z,12.32
2017-05-17T18:04:31.271Z,9.95
2017-05-17T18:06:59.768Z,10.35
2017-05-17T18:09:28.268Z,9.82
2017-05-17T18:11:56.815Z,11.50
2017-05-17T18:14:25.320Z,10.45
2017-05-17T18:16:53.826Z,10.15
2017-05-17T18:19:22.403Z,12.62
2017-05-17T18:21:50.912Z,10.17
2017-05-17T18:24:19.451Z,13.02
2017-05-17T18:26:48.005Z,11.73
2017-05-17T18:29:16.517Z,11.75
2017-05-17T18:31:45.041Z,23.25
2017-05-17T18:34:13.592Z,12.90
2017-05-17T18:36:42.132Z,11.67
2017-05-17T18:39:10.665Z,12.77
2017-05-17T18:41:39.231Z,10.23
2017-05-17T18:44:07.743Z,14.10
2017-05-17T18:46:36.269Z,12.78
2017-05-17T18:49:04.847Z,13.02
2017-05-17T18:51:33.846Z,12.33
2017-05-17T18:54:02.380Z,12.50
2017-05-17T18:56:30.963Z,11.73
2017-05-17T18:58:59.468Z,13.60
2017-05-17T19:01:27.983Z,13.17
2017-05-17T19:03:56.531Z,12.82
2017-05-17T19:06:25.049Z,12.95
2017-05-17T19:08:53.559Z,13.02
2017-05-17T19:11:22.113Z,14.58
2017-05-17T19:13:50.628Z,13.23
2017-05-17T19:16:19.137Z,14.03
2017-05-17T19:18:47.682Z,14.92
2017-05-17T19:21:16.190Z,14.00
2017-05-17T19:23:44.699Z,13.88
2017-05-17T19:26:13.271Z,14.27
2017-05-17T19:28:41.780Z,16.02
2017-05-17T19:31:10.291Z,18.52
2017-05-17T19:33:38.845Z,14.48
2017-05-17T19:36:07.356Z,15.67
2017-05-17T19:38:35.877Z,15.22
2017-05-17T19:41:04.431Z,16.98
2017-05-17T19:43:32.957Z,15.07
2017-05-17T19:46:01.467Z,14.23
2017-05-17T19:48:30.036Z,15.47
2017-05-17T19:50:58.548Z,13.98
2017-05-17T19:53:27.053Z,16.15
2017-05-17T19:55:55.596Z,15.97
2017-05-17T19:58:24.105Z,16.25
2017-05-17T20:00:52.617Z,15.03
2017-05-17T20:03:21.372Z,15.32
2017-05-17T20:05:49.887Z,15.65
2017-05-17T20:08:18.456Z,18.05
2017-05-17T20:10:47.008Z,17.63
2017-05-17T20:13:15.549Z,17.83
2017-05-17T20:15:44.050Z,17.07
2017-05-17T20:18:12.595Z,15.78
2017-05-17T20:20:41.153Z,18.73
2017-05-17T20:23:09.687Z,17.55
2017-05-17T20:25:38.240Z,16.60
2017-05-17T20:28:06.802Z,16.88
2017-05-17T20:30:35.331Z,16.95
2017-05-17T20:33:03.900Z,18.93
2017-05-17T20:35:32.409Z,17.15
2017-05-17T20:38:00.930Z,19.52
2017-05-17T20:40:29.483Z,17.88
2017-05-17T20:42:57.996Z,16.50
2017-05-17T20:45:26.499Z,16.72
2017-05-17T20:47:55.048Z,15.05
2017-05-17T20:50:23.570Z,19.07
2017-05-17T20:52:52.087Z,17.08
2017-05-17T20:55:20.662Z,18.67
2017-05-17T20:57:49.289Z,20.57
2017-05-17T21:00:18.797Z,21.45
2017-05-17T21:02:47.353Z,18.18
2017-05-17T21:05:15.884Z,17.95
2017-05-17T21:07:44.406Z,18.30
2017-05-17T21:10:12.961Z,18.05
2017-05-17T21:12:41.464Z,17.07
2017-05-17T21:15:09.972Z,16.47
2017-05-17T21:17:38.525Z,17.58
2017-05-17T21:20:07.030Z,16.47
2017-05-17T21:22:35.569Z,15.25
2017-05-17T21:25:04.133Z,16.85
2017-05-17T21:27:32.639Z,17.10
2017-05-17T21:30:01.217Z,15.72
2017-05-17T21:32:29.780Z,17.92
2017-05-17T21:34:58.293Z,16.07
2017-05-17T21:37:26.810Z,15.45
2017-05-17T21:39:55.401Z,15.32
2017-05-17T21:42:23.925Z,16.83
2017-05-17T21:44:52.433Z,15.55
2017-05-17T21:47:20.975Z,16.93
2017-05-17T21:49:49.487Z,15.75
2017-05-17T21:52:17.997Z,16.35
2017-05-17T21:54:46.545Z,16.28
2017-05-17T21:57:15.071Z,14.83
2017-05-17T21:59:43.586Z,15.67
2017-05-17T22:02:12.140Z,15.88
2017-05-17T22:04:40.647Z,16.97
2017-05-17T22:07:09.175Z,15.93
2017-05-17T22:09:37.723Z,16.38
2017-05-17T22:12:06.230Z,15.08
2017-05-17T22:14:34.818Z,16.30
2017-05-17T22:17:03.365Z,15.92
2017-05-17T22:19:31.897Z,16.27
2017-05-17T22:22:00.443Z,15.03
2017-05-17T22:24:28.992Z,18.57
2017-05-17T22:26:58.009Z,18.88
2017-05-17T22:29:26.583Z,20.02
2017-05-17T22:31:55.139Z,19.83
2017-05-17T22:34:23.653Z,20.42
2017-05-17T22:36:52.200Z,19.27
2017-05-17T22:39:20.748Z,25.88
2017-05-17T22:41:49.267Z,19.37
2017-05-17T22:44:17.797Z,20.68
2017-05-17T22:46:46.354Z,19.65
2017-05-17T22:49:14.870Z,22.27
2017-05-17T22:51:43.372Z,26.67
2017-05-17T22:54:11.933Z,23.42
2017-05-17T22:56:40.450Z,23.03
2017-05-17T22:59:08.961Z,23.00
2017-05-17T23:01:37.505Z,21.67
2017-05-17T23:04:06.027Z,25.33
2017-05-17T23:06:34.540Z,21.47
2017-05-17T23:09:03.152Z,22.47
2017-05-17T23:11:31.661Z,23.30
2017-05-17T23:14:00.163Z,23.42
2017-05-17T23:16:27.945Z,22.22
2017-05-17T23:18:56.454Z,21.07
2017-05-17T23:21:24.961Z,21.97
2017-05-17T23:23:53.541Z,22.88
2017-05-17T23:26:22.045Z,25.53
2017-05-17T23:28:50.576Z,23.18
2017-05-17T23:31:19.183Z,26.00
2017-05-17T23:33:47.697Z,22.33
2017-05-17T23:36:16.204Z,20.65
2017-05-17T23:38:44.749Z,23.23
2017-05-17T23:41:13.254Z,22.65
2017-05-17T23:43:41.761Z,21.05
2017-05-17T23:46:10.308Z,22.70
2017-05-17T23:48:38.814Z,22.55
2017-05-17T23:51:07.321Z,23.17
2017-05-17T23:53:35.865Z,26.43
2017-05-17T23:56:04.386Z,23.35
2017-05-17T23:58:32.948Z,24.67
